createdAt,value
2019-04-03T00:02:01.095Z,17.00
2019-04-03T00:04:28.055Z,17.47
2019-04-03T00:06:55.114Z,18.80
2019-04-03T00:09:22.058Z,17.30
2019-04-03T00:11:48.981Z,17.67
2019-04-03T00:14:15.941Z,18.60
2019-04-03T00:16:45.122Z,18.33
2019-04-03T00:19:11.739Z,17.30
2019-04-03T00:21:38.721Z,18.30
2019-04-03T00:24:05.775Z,17.17
2019-04-03T00:26:32.704Z,17.20
2019-04-03T00:28:59.712Z,17.67
2019-04-03T00:31:26.672Z,18.90
2019-04-03T00:33:54.181Z,17.93
2019-04-03T00:36:22.889Z,17.40
2019-04-03T00:38:50.151Z,18.63
2019-04-03T00:41:17.101Z,18.13
2019-04-03T00:43:44.061Z,16.93
2019-04-03T00:46:11.098Z,17.27
2019-04-03T00:48:38.058Z,18.23
2019-04-03T00:51:05.012Z,18.50
2019-04-03T00:53:32.026Z,17.60
2019-04-03T00:55:58.984Z,18.93
2019-04-03T00:58:40.238Z,18.50
2019-04-03T01:01:09.363Z,17.17
2019-04-03T01:03:36.318Z,17.20
2019-04-03T01:06:03.723Z,17.80
2019-04-03T01:08:30.875Z,19.27
2019-04-03T01:10:58.731Z,18.87
2019-04-03T01:13:26.827Z,17.97
2019-04-03T01:15:53.778Z,19.27
2019-04-03T01:18:20.728Z,18.50
2019-04-03T01:20:47.674Z,18.90
2019-04-03T01:23:14.660Z,20.07
2019-04-03T01:25:41.622Z,18.10
2019-04-03T01:28:10.993Z,16.97
2019-04-03T01:30:37.401Z,19.13
2019-04-03T01:33:04.356Z,18.83
2019-04-03T01:35:31.314Z,18.70
2019-04-03T01:37:58.301Z,18.57
2019-04-03T01:40:25.218Z,18.60
2019-04-03T01:42:53.322Z,18.60
2019-04-03T01:45:20.653Z,18.80
2019-04-03T01:47:47.676Z,18.07
2019-04-03T01:50:14.640Z,17.73
2019-04-03T01:52:41.572Z,18.33
2019-04-03T01:55:08.591Z,18.43
2019-04-03T01:57:36.695Z,19.80
2019-04-03T02:00:06.964Z,19.40
2019-04-03T02:02:33.257Z,19.20
2019-04-03T02:05:00.254Z,18.50
2019-04-03T02:07:27.304Z,19.03
2019-04-03T02:09:54.405Z,19.47
2019-04-03T02:12:21.321Z,20.90
2019-04-03T02:14:50.965Z,19.10
2019-04-03T02:17:17.150Z,18.87
2019-04-03T02:19:44.129Z,18.73
2019-04-03T02:22:11.198Z,18.23
2019-04-03T02:24:38.140Z,18.87
2019-04-03T02:27:06.817Z,18.40
2019-04-03T02:29:33.833Z,19.60
2019-04-03T02:32:00.738Z,18.00
2019-04-03T02:34:27.894Z,18.87
2019-04-03T02:36:55.003Z,18.40
2019-04-03T02:39:25.654Z,18.50
2019-04-03T02:41:50.807Z,18.27
2019-04-03T02:44:19.103Z,17.60
2019-04-03T02:46:46.564Z,18.10
2019-04-03T02:49:13.500Z,18.37
2019-04-03T02:51:42.152Z,17.87
2019-04-03T02:54:26.507Z,17.50
2019-04-03T02:56:53.593Z,16.50
2019-04-03T02:59:20.645Z,17.30
2019-04-03T03:01:47.563Z,17.73
2019-04-03T03:04:14.514Z,17.53
2019-04-03T03:06:41.430Z,17.77
2019-04-03T03:09:08.616Z,18.23
2019-04-03T03:11:35.579Z,17.17
2019-04-03T03:14:06.389Z,17.83
2019-04-03T03:16:31.524Z,15.90
2019-04-03T03:19:00.803Z,17.27
2019-04-03T03:21:28.513Z,17.00
2019-04-03T03:23:57.131Z,17.13
2019-04-03T03:26:24.352Z,19.57
2019-04-03T03:28:51.360Z,18.07
2019-04-03T03:31:19.130Z,18.60
2019-04-03T03:33:46.560Z,18.30
2019-04-03T03:36:19.563Z,18.73
2019-04-03T03:38:44.190Z,17.90
2019-04-03T03:41:12.309Z,17.17
2019-04-03T03:43:39.911Z,18.40
2019-04-03T03:46:06.863Z,18.47
2019-04-03T03:48:35.182Z,21.37
2019-04-03T03:51:03.524Z,19.77
2019-04-03T03:53:31.203Z,19.80
2019-04-03T03:55:59.859Z,20.00
2019-04-03T03:58:27.961Z,20.40
2019-04-03T04:00:58.011Z,20.70
2019-04-03T04:03:23.698Z,20.03
2019-04-03T04:05:53.851Z,19.30
2019-04-03T04:08:19.844Z,19.50
2019-04-03T04:10:46.906Z,19.87
2019-04-03T04:13:16.345Z,21.90
2019-04-03T04:15:43.874Z,19.97
2019-04-03T04:18:13.821Z,19.17
2019-04-03T04:20:41.215Z,20.37
2019-04-03T04:23:08.432Z,20.70
2019-04-03T04:25:35.810Z,22.60
2019-04-03T04:28:02.851Z,22.10
2019-04-03T04:30:29.799Z,21.60
2019-04-03T04:32:56.716Z,21.30
2019-04-03T04:35:23.653Z,20.67
2019-04-03T04:37:50.551Z,20.13
2019-04-03T04:40:17.498Z,19.40
2019-04-03T04:42:44.417Z,21.13
2019-04-03T04:45:12.158Z,21.83
2019-04-03T04:47:39.430Z,22.67
2019-04-03T04:50:06.450Z,25.60
2019-04-03T04:52:33.430Z,23.30
2019-04-03T04:55:02.009Z,22.63
2019-04-03T04:57:29.192Z,23.50
2019-04-03T04:59:56.158Z,24.10
2019-04-03T05:02:23.127Z,22.83
2019-04-03T05:04:50.174Z,23.60
2019-04-03T05:07:17.441Z,25.77
2019-04-03T05:09:44.593Z,23.23
2019-04-03T05:12:11.867Z,24.30
2019-04-03T05:14:38.954Z,25.23
2019-04-03T05:17:05.981Z,26.80
2019-04-03T05:19:33.178Z,27.47
2019-04-03T05:22:00.153Z,25.20
2019-04-03T05:24:28.892Z,25.40
2019-04-03T05:26:55.970Z,24.70
2019-04-03T05:29:23.110Z,25.93
2019-04-03T05:31:50.060Z,25.37
2019-04-03T05:34:16.960Z,24.23
2019-04-03T05:36:44.058Z,26.03
2019-04-03T05:39:11.025Z,25.40
2019-04-03T05:41:37.969Z,25.73
2019-04-03T05:44:04.930Z,25.77
2019-04-03T05:46:31.899Z,25.83
2019-04-03T05:48:59.020Z,22.13
2019-04-03T05:51:26.099Z,24.13
2019-04-03T05:53:54.105Z,23.13
2019-04-03T05:56:21.606Z,20.47
2019-04-03T05:58:55.421Z,22.23
2019-04-03T06:01:17.435Z,20.80
2019-04-03T06:03:45.699Z,21.53
2019-04-03T06:06:14.480Z,22.13
2019-04-03T06:08:41.651Z,21.63
2019-04-03T06:11:09.494Z,21.77
2019-04-03T06:13:36.810Z,20.50
2019-04-03T06:16:03.881Z,20.87
2019-04-03T06:18:32.070Z,20.20
2019-04-03T06:20:59.375Z,19.70
2019-04-03T06:23:26.404Z,21.23
2019-04-03T06:25:53.787Z,19.67
2019-04-03T06:28:20.813Z,19.27
2019-04-03T06:30:47.750Z,18.67
2019-04-03T06:33:14.980Z,19.63
2019-04-03T06:35:44.552Z,19.10
2019-04-03T06:38:10.873Z,19.33
2019-04-03T06:40:37.820Z,19.53
2019-04-03T06:43:04.813Z,19.03
2019-04-03T06:45:31.750Z,20.00
2019-04-03T06:47:58.698Z,18.10
2019-04-03T06:50:25.779Z,17.37
2019-04-03T06:52:53.130Z,16.50
2019-04-03T06:55:20.693Z,16.50
2019-04-03T06:57:47.661Z,14.50
2019-04-03T07:00:14.720Z,15.90
2019-04-03T07:02:41.953Z,13.37
2019-04-03T07:05:10.266Z,14.13
2019-04-03T07:07:38.327Z,15.73
2019-04-03T07:10:08.706Z,13.90
2019-04-03T07:12:34.636Z,14.57
2019-04-03T07:15:02.146Z,14.13
2019-04-03T07:17:31.418Z,14.93
2019-04-03T07:19:58.083Z,15.00
2019-04-03T07:22:27.051Z,14.77
2019-04-03T07:24:53.905Z,14.57
2019-04-03T07:27:20.849Z,14.57
2019-04-03T07:29:49.035Z,14.60
2019-04-03T07:32:17.131Z,14.80
2019-04-03T07:34:44.450Z,14.97
2019-04-03T07:37:11.605Z,14.60
2019-04-03T07:39:38.539Z,14.97
2019-04-03T07:42:05.487Z,13.70
2019-04-03T07:44:32.741Z,14.00
2019-04-03T07:47:00.023Z,14.40
2019-04-03T07:49:26.980Z,12.90
2019-04-03T07:51:54.211Z,14.90
2019-04-03T07:54:22.066Z,14.10
2019-04-03T07:56:49.734Z,14.37
2019-04-03T07:59:16.681Z,13.93
2019-04-03T08:01:43.610Z,12.47
2019-04-03T08:04:10.579Z,11.90
2019-04-03T08:06:37.540Z,11.53
2019-04-03T08:09:09.322Z,13.30
2019-04-03T08:11:37.309Z,9.93
2019-04-03T08:14:04.563Z,9.70
2019-04-03T08:16:31.507Z,8.60
2019-04-03T08:18:58.455Z,8.60
2019-04-03T08:21:25.387Z,8.43
2019-04-03T08:23:52.353Z,8.70
2019-04-03T08:26:19.910Z,8.30
2019-04-03T08:28:49.091Z,8.13
2019-04-03T08:31:16.036Z,8.90
2019-04-03T08:33:44.158Z,9.40
2019-04-03T08:36:23.121Z,9.67
2019-04-03T08:38:44.061Z,9.70
2019-04-03T08:41:11.363Z,10.10
2019-04-03T08:43:38.323Z,9.60
2019-04-03T08:46:05.388Z,10.63
2019-04-03T08:48:32.323Z,9.60
2019-04-03T08:51:02.222Z,9.73
2019-04-03T08:53:28.109Z,9.77
2019-04-03T08:55:56.563Z,10.70
2019-04-03T08:58:25.955Z,11.43
2019-04-03T09:00:52.831Z,10.40
2019-04-03T09:03:19.788Z,10.03
2019-04-03T09:05:46.768Z,11.17
2019-04-03T09:08:13.776Z,10.53
2019-04-03T09:10:40.727Z,10.57
2019-04-03T09:13:16.950Z,9.40
2019-04-03T09:15:36.681Z,11.47
2019-04-03T09:18:06.477Z,10.33
2019-04-03T09:20:35.190Z,10.70
2019-04-03T09:23:02.063Z,9.70
2019-04-03T09:25:29.826Z,10.10
2019-04-03T09:27:58.530Z,9.37
2019-04-03T09:30:25.652Z,8.97
2019-04-03T09:32:53.665Z,10.60
2019-04-03T09:35:21.371Z,9.80
2019-04-03T09:37:50.089Z,9.03
2019-04-03T09:40:17.856Z,10.50
2019-04-03T09:42:44.974Z,10.23
2019-04-03T09:45:12.227Z,10.50
2019-04-03T09:47:39.435Z,10.07
2019-04-03T09:50:07.147Z,10.53
2019-04-03T09:52:42.424Z,8.93
2019-04-03T09:55:05.251Z,9.80
2019-04-03T09:57:32.481Z,9.67
2019-04-03T09:59:59.583Z,11.90
2019-04-03T10:02:26.730Z,9.80
2019-04-03T10:04:53.699Z,10.70
2019-04-03T10:07:20.746Z,11.00
2019-04-03T10:09:47.752Z,11.23
2019-04-03T10:12:14.804Z,10.87
2019-04-03T10:14:41.846Z,10.77
2019-04-03T10:17:08.753Z,10.37
2019-04-03T10:19:35.707Z,10.90
2019-04-03T10:22:02.977Z,11.13
2019-04-03T10:24:31.066Z,12.00
2019-04-03T10:26:58.696Z,11.30
2019-04-03T10:29:26.279Z,12.50
2019-04-03T10:31:56.028Z,14.20
2019-04-03T10:34:22.403Z,15.77
2019-04-03T10:36:49.464Z,10.90
2019-04-03T10:39:17.890Z,9.83
2019-04-03T10:41:45.211Z,10.60
2019-04-03T10:44:12.210Z,10.17
2019-04-03T10:46:39.116Z,10.10
2019-04-03T10:49:06.175Z,11.30
2019-04-03T10:51:33.493Z,10.30
2019-04-03T10:54:00.765Z,10.97
2019-04-03T10:56:30.748Z,10.57
2019-04-03T10:59:09.161Z,10.77
2019-04-03T11:01:25.670Z,9.33
2019-04-03T11:03:53.017Z,8.93
2019-04-03T11:06:20.167Z,10.70
2019-04-03T11:08:47.179Z,10.90
2019-04-03T11:11:14.704Z,11.10
2019-04-03T11:13:41.735Z,11.87
2019-04-03T11:16:08.743Z,14.00
2019-04-03T11:18:35.680Z,12.50
2019-04-03T11:21:02.649Z,12.13
2019-04-03T11:23:37.856Z,11.63
2019-04-03T11:25:58.488Z,14.13
2019-04-03T11:28:25.396Z,14.47
2019-04-03T11:30:53.392Z,15.83
2019-04-03T11:33:20.536Z,16.43
2019-04-03T11:35:47.842Z,15.37
2019-04-03T11:38:25.424Z,14.33
2019-04-03T11:40:43.928Z,16.00
2019-04-03T11:43:10.982Z,18.10
2019-04-03T11:45:37.929Z,17.17
2019-04-03T11:48:04.887Z,16.30
2019-04-03T11:50:32.042Z,18.00
2019-04-03T11:53:02.763Z,15.23
2019-04-03T11:55:28.230Z,15.60
2019-04-03T11:57:55.223Z,15.53
2019-04-03T12:00:26.916Z,16.20
2019-04-03T12:02:53.847Z,14.03
2019-04-03T12:05:21.563Z,16.13
2019-04-03T12:07:48.975Z,16.97
2019-04-03T12:10:16.310Z,15.03
2019-04-03T12:12:43.778Z,14.73
2019-04-03T12:15:11.368Z,13.90
2019-04-03T12:17:38.885Z,14.83
2019-04-03T12:20:09.164Z,14.43
2019-04-03T12:22:36.823Z,15.80
2019-04-03T12:25:05.145Z,13.90
2019-04-03T12:27:32.064Z,15.37
2019-04-03T12:29:59.030Z,13.90
2019-04-03T12:32:36.578Z,12.50
2019-04-03T12:34:54.790Z,13.40
2019-04-03T12:37:24.537Z,13.17
2019-04-03T12:39:50.604Z,14.03
2019-04-03T12:42:17.723Z,13.17
2019-04-03T12:44:44.688Z,14.03
2019-04-03T12:47:12.943Z,13.00
2019-04-03T12:49:40.456Z,10.60
2019-04-03T12:52:07.443Z,12.60
2019-04-03T12:54:34.452Z,11.60
2019-04-03T12:57:02.121Z,11.03
2019-04-03T12:59:29.414Z,10.03
2019-04-03T13:01:56.470Z,11.40
2019-04-03T13:04:25.592Z,10.70
2019-04-03T13:06:52.259Z,12.87
2019-04-03T13:09:19.523Z,11.37
2019-04-03T13:11:49.753Z,12.03
2019-04-03T13:14:24.158Z,10.90
2019-04-03T13:16:46.594Z,10.07
2019-04-03T13:19:15.371Z,10.00
2019-04-03T13:21:42.163Z,9.27
2019-04-03T13:24:11.284Z,8.60
2019-04-03T13:26:38.203Z,9.23
2019-04-03T13:29:07.534Z,9.93
2019-04-03T13:31:34.222Z,8.77
2019-04-03T13:34:02.282Z,8.57
2019-04-03T13:36:29.851Z,8.03
2019-04-03T13:39:00.363Z,8.40
2019-04-03T13:41:25.979Z,7.23
2019-04-03T13:43:54.437Z,8.30
2019-04-03T13:46:22.256Z,7.80
2019-04-03T13:48:49.188Z,6.20
2019-04-03T13:51:16.127Z,6.60
2019-04-03T13:53:44.235Z,7.13
2019-04-03T13:56:12.264Z,6.87
2019-04-03T13:58:39.773Z,6.60
2019-04-03T14:01:09.263Z,6.27
2019-04-03T14:03:35.569Z,7.47
2019-04-03T14:06:04.482Z,6.40
2019-04-03T14:08:31.351Z,6.47
2019-04-03T14:10:58.892Z,6.30
2019-04-03T14:13:26.271Z,4.50
2019-04-03T14:15:55.292Z,4.13
2019-04-03T14:18:22.073Z,4.63
2019-04-03T14:20:50.525Z,4.63
2019-04-03T14:23:18.041Z,5.30
2019-04-03T14:25:44.973Z,5.10
2019-04-03T14:28:11.929Z,5.23
2019-04-03T14:30:38.874Z,4.80
2019-04-03T14:33:05.830Z,4.90
2019-04-03T14:35:46.891Z,5.63
2019-04-03T14:38:03.218Z,5.77
2019-04-03T14:40:30.284Z,5.00
2019-04-03T14:42:58.732Z,4.80
2019-04-03T14:45:26.054Z,4.73
2019-04-03T14:47:54.921Z,7.40
2019-04-03T14:50:21.878Z,4.90
2019-04-03T14:52:49.658Z,6.07
2019-04-03T14:55:20.774Z,5.03
2019-04-03T14:57:45.784Z,6.40
2019-04-03T15:00:26.755Z,6.20
2019-04-03T15:02:42.223Z,5.63
2019-04-03T15:05:09.390Z,6.10
2019-04-03T15:07:36.447Z,5.50
2019-04-03T15:10:04.460Z,6.80
2019-04-03T15:12:31.469Z,5.83
2019-04-03T15:14:58.504Z,5.40
2019-04-03T15:17:26.222Z,5.10
2019-04-03T15:19:56.006Z,5.40
2019-04-03T15:22:22.454Z,5.70
2019-04-03T15:24:49.587Z,5.97
2019-04-03T15:27:16.902Z,5.30
2019-04-03T15:29:44.088Z,6.33
2019-04-03T15:32:11.171Z,6.00
2019-04-03T15:34:38.152Z,6.40
2019-04-03T15:37:06.152Z,5.40
2019-04-03T15:39:34.328Z,5.90
2019-04-03T15:42:01.331Z,6.20
2019-04-03T15:44:28.905Z,4.87
2019-04-03T15:46:56.143Z,5.70
2019-04-03T15:49:25.646Z,5.97
2019-04-03T15:51:51.969Z,6.10
2019-04-03T15:54:19.175Z,5.60
2019-04-03T15:56:46.625Z,5.77
2019-04-03T15:59:13.760Z,5.10
2019-04-03T16:01:41.327Z,5.23
2019-04-03T16:04:08.298Z,4.63
2019-04-03T16:06:36.024Z,6.13
2019-04-03T16:09:06.859Z,6.20
2019-04-03T16:11:33.835Z,6.33
2019-04-03T16:14:01.635Z,5.67
2019-04-03T16:16:29.355Z,5.87
2019-04-03T16:18:56.459Z,5.67
2019-04-03T16:21:23.953Z,5.60
2019-04-03T16:23:51.550Z,5.63
2019-04-03T16:26:18.508Z,5.60
2019-04-03T16:28:45.473Z,5.10
2019-04-03T16:31:12.771Z,5.33
2019-04-03T16:34:01.028Z,5.70
2019-04-03T16:36:29.094Z,5.30
2019-04-03T16:38:56.183Z,5.07
2019-04-03T16:41:23.428Z,6.30
2019-04-03T16:43:50.469Z,7.80
2019-04-03T16:46:17.407Z,7.13
2019-04-03T16:48:44.470Z,8.13
2019-04-03T16:51:11.388Z,6.67
2019-04-03T16:53:39.409Z,6.90
2019-04-03T16:56:06.588Z,6.67
2019-04-03T16:58:33.544Z,6.83
2019-04-03T17:01:00.481Z,6.27
2019-04-03T17:03:31.742Z,6.47
2019-04-03T17:05:56.493Z,7.00
2019-04-03T17:08:24.982Z,9.50
2019-04-03T17:10:52.421Z,7.53
2019-04-03T17:13:21.363Z,8.70
2019-04-03T17:15:48.167Z,6.40
2019-04-03T17:18:17.207Z,6.43
2019-04-03T17:20:45.063Z,6.20
2019-04-03T17:23:13.015Z,5.53
2019-04-03T17:25:47.736Z,5.60
2019-04-03T17:28:10.354Z,6.10
2019-04-03T17:30:37.462Z,5.50
2019-04-03T17:33:04.638Z,6.63
2019-04-03T17:35:31.647Z,5.80
2019-04-03T17:38:00.009Z,6.53
2019-04-03T17:40:27.532Z,6.17
2019-04-03T17:42:54.508Z,5.80
2019-04-03T17:45:21.512Z,5.67
2019-04-03T17:47:49.655Z,6.30
2019-04-03T17:50:17.683Z,7.00
2019-04-03T17:52:44.606Z,15.63
2019-04-03T17:55:12.721Z,8.30
2019-04-03T17:57:39.673Z,7.27
2019-04-03T18:00:09.707Z,7.50
2019-04-03T18:02:36.806Z,6.67
2019-04-03T18:05:06.421Z,7.87
2019-04-03T18:07:33.293Z,8.27
2019-04-03T18:10:00.385Z,10.60
2019-04-03T18:12:27.710Z,7.67
2019-04-03T18:14:55.692Z,8.27
2019-04-03T18:17:23.852Z,11.73
2019-04-03T18:19:50.802Z,10.53
2019-04-03T18:22:20.100Z,7.93
2019-04-03T18:24:46.585Z,8.13
2019-04-03T18:27:13.484Z,7.87
2019-04-03T18:29:40.497Z,8.00
2019-04-03T18:32:07.463Z,8.63
2019-04-03T18:34:34.512Z,8.20
2019-04-03T18:37:01.883Z,8.67
2019-04-03T18:39:30.565Z,9.83
2019-04-03T18:41:57.473Z,10.53
2019-04-03T18:44:26.208Z,10.20
2019-04-03T18:46:53.297Z,10.47
2019-04-03T18:49:20.477Z,10.97
2019-04-03T18:51:47.408Z,10.10
2019-04-03T18:54:14.369Z,11.60
2019-04-03T18:56:41.288Z,11.20
2019-04-03T18:59:08.241Z,12.70
2019-04-03T19:01:37.880Z,12.80
2019-04-03T19:04:06.955Z,13.17
2019-04-03T19:06:33.039Z,12.03
2019-04-03T19:09:09.243Z,10.83
2019-04-03T19:11:28.898Z,9.90
2019-04-03T19:13:55.902Z,10.50
2019-04-03T19:16:29.503Z,13.30
2019-04-03T19:18:51.835Z,11.70
2019-04-03T19:21:24.681Z,12.43
2019-04-03T19:23:49.884Z,12.60
2019-04-03T19:26:16.459Z,10.70
2019-04-03T19:28:43.410Z,7.73
2019-04-03T19:31:10.370Z,8.33
2019-04-03T19:33:37.316Z,7.80
2019-04-03T19:36:04.320Z,8.43
2019-04-03T19:38:31.343Z,9.40
2019-04-03T19:40:58.390Z,8.37
2019-04-03T19:43:25.306Z,8.47
2019-04-03T19:45:52.411Z,8.10
2019-04-03T19:48:19.397Z,8.70
2019-04-03T19:50:46.361Z,7.30
2019-04-03T19:53:14.125Z,6.27
2019-04-03T19:55:41.202Z,7.10
2019-04-03T19:58:08.163Z,7.47
2019-04-03T20:00:35.504Z,7.17
2019-04-03T20:03:02.538Z,8.00
2019-04-03T20:05:29.516Z,9.50
2019-04-03T20:07:58.726Z,11.90
2019-04-03T20:10:25.278Z,12.70
2019-04-03T20:12:52.299Z,11.47
2019-04-03T20:15:22.380Z,10.73
2019-04-03T20:17:48.213Z,9.97
2019-04-03T20:20:15.128Z,10.00
2019-04-03T20:22:42.698Z,10.50
2019-04-03T20:25:09.916Z,9.97
2019-04-03T20:27:36.944Z,9.70
2019-04-03T20:30:04.625Z,10.37
2019-04-03T20:32:31.587Z,9.40
2019-04-03T20:34:58.524Z,9.13
2019-04-03T20:37:26.250Z,8.20
2019-04-03T20:39:53.644Z,9.53
2019-04-03T20:42:20.700Z,7.00
2019-04-03T20:44:48.593Z,7.00
2019-04-03T20:47:15.752Z,7.50
2019-04-03T20:49:43.787Z,6.83
2019-04-03T20:52:11.605Z,6.57
2019-04-03T20:54:39.096Z,6.40
2019-04-03T20:57:06.025Z,6.10
2019-04-03T20:59:32.961Z,6.33
2019-04-03T21:02:00.006Z,6.03
2019-04-03T21:04:27.013Z,5.97
2019-04-03T21:06:54.036Z,4.60
2019-04-03T21:09:20.947Z,5.43
2019-04-03T21:11:47.988Z,5.13
2019-04-03T21:14:15.023Z,4.73
2019-04-03T21:16:41.963Z,4.70
2019-04-03T21:19:08.894Z,3.60
2019-04-03T21:21:35.830Z,4.07
2019-04-03T21:24:04.093Z,4.70
2019-04-03T21:26:31.711Z,3.30
2019-04-03T21:28:58.630Z,4.10
2019-04-03T21:31:25.982Z,3.70
2019-04-03T21:33:53.519Z,3.47
2019-04-03T21:36:20.499Z,3.90
2019-04-03T21:38:47.416Z,3.50
2019-04-03T21:41:14.782Z,4.03
2019-04-03T21:43:41.689Z,4.13
2019-04-03T21:46:08.915Z,3.47
2019-04-03T21:48:36.531Z,3.50
2019-04-03T21:51:03.475Z,4.40
2019-04-03T21:53:30.420Z,4.47
2019-04-03T21:55:57.355Z,3.80
2019-04-03T21:58:24.303Z,4.47
2019-04-03T22:01:19.273Z,4.27
2019-04-03T22:03:46.675Z,4.40
2019-04-03T22:06:13.622Z,3.93
2019-04-03T22:08:40.666Z,3.50
2019-04-03T22:11:07.568Z,5.00
2019-04-03T22:13:34.517Z,6.13
2019-04-03T22:16:01.420Z,4.20
2019-04-03T22:18:28.361Z,4.80
2019-04-03T22:20:55.331Z,4.70
2019-04-03T22:23:22.273Z,3.97
2019-04-03T22:25:49.193Z,5.17
2019-04-03T22:28:16.176Z,4.70
2019-04-03T22:30:43.114Z,5.93
2019-04-03T22:33:10.064Z,5.23
2019-04-03T22:35:37.019Z,5.87
2019-04-03T22:38:05.451Z,4.60
2019-04-03T22:40:32.893Z,5.93
2019-04-03T22:42:59.800Z,4.90
2019-04-03T22:45:26.722Z,4.77
2019-04-03T22:47:54.297Z,4.93
2019-04-03T22:50:22.498Z,5.83
2019-04-03T22:52:49.468Z,4.60
2019-04-03T22:55:16.402Z,5.47
2019-04-03T22:57:43.560Z,5.20
2019-04-03T23:00:10.471Z,4.53
2019-04-03T23:02:37.413Z,4.03
2019-04-03T23:05:04.457Z,4.57
2019-04-03T23:07:31.409Z,4.57
2019-04-03T23:09:58.356Z,4.63
2019-04-03T23:12:25.311Z,5.10
2019-04-03T23:14:52.285Z,4.30
2019-04-03T23:17:19.558Z,5.33
2019-04-03T23:19:46.470Z,5.20
2019-04-03T23:22:13.397Z,5.27
2019-04-03T23:24:40.371Z,5.23
2019-04-03T23:27:07.270Z,5.93
2019-04-03T23:29:36.544Z,5.97
2019-04-03T23:32:03.039Z,6.27
2019-04-03T23:34:29.985Z,5.37
2019-04-03T23:36:56.911Z,5.17
2019-04-03T23:39:23.855Z,4.80
2019-04-03T23:41:50.787Z,5.30
2019-04-03T23:44:17.786Z,5.37
2019-04-03T23:46:45.698Z,4.73
2019-04-03T23:49:12.997Z,4.90
2019-04-03T23:51:39.936Z,4.80
2019-04-03T23:54:06.881Z,5.00
2019-04-03T23:56:33.796Z,5.07
2019-04-03T23:59:00.752Z,5.07
